createdAt,value
2022-10-11T00:03:07.409Z,35
2022-10-11T00:08:09.024Z,49
2022-10-11T00:13:10.622Z,55
2022-10-11T00:18:12.263Z,48
2022-10-11T00:23:13.866Z,46
2022-10-11T00:28:15.488Z,35
2022-10-11T00:33:17.114Z,43
2022-10-11T00:38:18.712Z,42
2022-10-11T00:43:20.273Z,40
2022-10-11T00:48:21.844Z,57
2022-10-11T00:53:23.464Z,44
2022-10-11T00:58:25.068Z,37
2022-10-11T01:03:26.743Z,49
2022-10-11T01:08:28.334Z,42
2022-10-11T01:13:29.957Z,42
2022-10-11T01:18:31.590Z,38
2022-10-11T01:23:33.165Z,34
2022-10-11T01:28:34.838Z,33
2022-10-11T01:33:36.511Z,33
2022-10-11T01:38:38.112Z,33
2022-10-11T01:43:39.796Z,30
2022-10-11T01:48:41.435Z,29
2022-10-11T01:53:42.988Z,28
2022-10-11T01:58:44.591Z,40
2022-10-11T02:03:46.195Z,36
2022-10-11T02:08:47.836Z,32
2022-10-11T02:13:49.443Z,30
2022-10-11T02:18:51.039Z,32
2022-10-11T02:23:52.643Z,29
2022-10-11T02:28:54.332Z,33
2022-10-11T02:33:56.062Z,29
2022-10-11T02:38:57.671Z,29
2022-10-11T02:43:59.233Z,30
2022-10-11T02:49:00.919Z,32
2022-10-11T02:54:02.647Z,32
2022-10-11T02:59:04.251Z,36
2022-10-11T03:04:05.835Z,35
2022-10-11T03:09:07.406Z,30
2022-10-11T03:14:09.020Z,34
2022-10-11T03:19:10.638Z,36
2022-10-11T03:24:12.213Z,37
2022-10-11T03:29:13.804Z,34
2022-10-11T03:34:15.401Z,31
2022-10-11T03:39:16.983Z,35
2022-10-11T03:44:18.583Z,34
2022-10-11T03:49:20.155Z,38
2022-10-11T03:54:21.831Z,38
2022-10-11T03:59:23.418Z,33
2022-10-11T04:04:25.088Z,37
2022-10-11T04:09:26.703Z,29
2022-10-11T04:14:28.297Z,35
2022-10-11T04:19:29.891Z,38
2022-10-11T04:24:31.467Z,33
2022-10-11T04:29:33.139Z,32
2022-10-11T04:34:34.773Z,36
2022-10-11T04:39:36.360Z,35
2022-10-11T04:44:37.940Z,35
2022-10-11T04:49:39.530Z,35
2022-10-11T04:54:41.132Z,39
2022-10-11T04:59:45.523Z,37
2022-10-11T05:04:51.004Z,37
2022-10-11T05:09:52.618Z,37
2022-10-11T05:14:54.211Z,32
2022-10-11T05:19:55.787Z,43
2022-10-11T05:24:57.349Z,41
2022-10-11T05:29:59.089Z,40
2022-10-11T05:35:00.646Z,44
2022-10-11T05:40:02.299Z,48
2022-10-11T05:45:03.887Z,52
2022-10-11T05:50:05.559Z,49
2022-10-11T05:55:07.138Z,49
2022-10-11T06:00:08.752Z,45
2022-10-11T06:05:10.327Z,54
2022-10-11T06:10:11.954Z,51
2022-10-11T06:15:13.591Z,53
2022-10-11T06:20:15.197Z,51
2022-10-11T06:25:16.800Z,57
2022-10-11T06:30:18.495Z,52
2022-10-11T06:35:20.111Z,57
2022-10-11T06:40:21.724Z,58
2022-10-11T06:45:23.441Z,59
2022-10-11T06:50:47.299Z,52
2022-10-11T06:55:56.407Z,55
2022-10-11T07:00:58.124Z,53
2022-10-11T07:06:02.452Z,57
2022-10-11T07:11:04.598Z,56
2022-10-11T07:16:06.726Z,52
2022-10-11T07:21:08.619Z,54
2022-10-11T07:26:10.349Z,44
2022-10-11T07:31:12.034Z,59
2022-10-11T07:36:13.623Z,47
2022-10-11T07:41:15.259Z,58
2022-10-11T07:46:16.838Z,54
2022-10-11T07:51:18.441Z,51
2022-10-11T07:56:20.052Z,49
2022-10-11T08:01:21.716Z,45
2022-10-11T08:11:39.182Z,46
2022-10-11T08:13:23.981Z,10
2022-10-11T08:18:25.637Z,10
2022-10-11T08:23:27.212Z,11
2022-10-11T08:28:29.703Z,13
2022-10-11T08:33:31.421Z,16
2022-10-11T08:38:33.299Z,9
2022-10-11T08:43:35.177Z,11
2022-10-11T08:48:37.115Z,14
2022-10-11T08:53:39.020Z,16
2022-10-11T08:58:40.904Z,11
2022-10-11T09:03:42.782Z,11
2022-10-11T09:08:44.706Z,13
2022-10-11T09:13:46.320Z,10
2022-10-11T09:18:47.963Z,13
2022-10-11T09:23:49.539Z,11
2022-10-11T09:28:51.258Z,11
2022-10-11T09:33:52.898Z,11
2022-10-11T09:38:54.504Z,13
2022-10-11T09:43:56.084Z,10
2022-10-11T09:48:57.692Z,14
2022-10-11T09:53:59.306Z,9
2022-10-11T09:59:00.904Z,14
2022-10-11T10:04:02.472Z,9
2022-10-11T10:09:04.185Z,9
2022-10-11T10:14:05.760Z,12
2022-10-11T10:19:07.356Z,13
2022-10-11T10:24:08.931Z,11
2022-10-11T10:29:10.537Z,11
2022-10-11T10:34:12.132Z,11
2022-10-11T10:39:13.704Z,9
2022-10-11T10:44:15.301Z,6
2022-10-11T10:49:48.806Z,8
2022-10-11T10:54:53.935Z,6
2022-10-11T10:59:55.627Z,10
2022-10-11T11:04:57.267Z,7
2022-10-11T11:09:58.885Z,8
2022-10-11T11:15:00.541Z,5
2022-10-11T11:20:02.167Z,5
2022-10-11T11:25:03.756Z,4
2022-10-11T11:30:05.395Z,5
2022-10-11T11:35:07.303Z,4
2022-10-11T11:40:08.887Z,3
2022-10-11T11:45:10.438Z,3
2022-10-11T11:50:12.197Z,3
2022-10-11T11:55:13.875Z,2
2022-10-11T12:00:15.470Z,5
2022-10-11T12:05:17.073Z,7
2022-10-11T12:10:18.693Z,8
2022-10-11T12:15:20.319Z,4
2022-10-11T12:20:21.927Z,2
2022-10-11T12:25:23.539Z,3
2022-10-11T12:30:25.239Z,5
2022-10-11T12:35:26.803Z,4
2022-10-11T12:40:28.510Z,2
2022-10-11T12:45:30.111Z,3
2022-10-11T12:50:31.785Z,3
2022-10-11T12:55:33.414Z,3
2022-10-11T13:00:35.012Z,3
2022-10-11T13:05:36.599Z,3
2022-10-11T13:10:38.196Z,2
2022-10-11T13:15:39.770Z,1
2022-10-11T13:20:42.561Z,1
2022-10-11T13:25:44.278Z,2
2022-10-11T13:30:45.876Z,2
2022-10-11T13:35:47.500Z,3
2022-10-11T13:40:51.142Z,3
2022-10-11T13:45:53.056Z,2
2022-10-11T13:50:54.644Z,1
2022-10-11T13:55:56.234Z,2
2022-10-11T14:00:57.888Z,2
2022-10-11T14:05:59.526Z,2
2022-10-11T14:11:06.084Z,2
2022-10-11T14:16:08.717Z,2
2022-10-11T14:21:11.140Z,3
2022-10-11T14:26:16.389Z,2
2022-10-11T14:31:20.287Z,2
2022-10-11T14:36:21.861Z,1
2022-10-11T14:41:23.476Z,2
2022-10-11T14:46:25.129Z,2
2022-10-11T14:51:26.728Z,2
2022-10-11T14:56:28.340Z,2
2022-10-11T15:01:30.288Z,2
2022-10-11T15:06:31.977Z,2
2022-10-11T15:11:33.657Z,2
2022-10-11T15:16:35.280Z,1
2022-10-11T15:21:36.871Z,1
2022-10-11T15:26:38.523Z,2
2022-10-11T15:31:40.121Z,3
2022-10-11T15:36:41.776Z,5
2022-10-11T15:41:43.367Z,2
2022-10-11T15:46:44.967Z,1
2022-10-11T15:51:46.566Z,2
2022-10-11T15:56:48.149Z,3
2022-10-11T16:01:49.764Z,2
2022-10-11T16:06:51.394Z,3
2022-10-11T16:11:52.953Z,3
2022-10-11T16:16:54.566Z,1
2022-10-11T16:21:56.140Z,1
2022-10-11T16:26:57.762Z,2
2022-10-11T16:31:59.377Z,2
2022-10-11T16:37:00.993Z,2
2022-10-11T16:42:02.573Z,2
2022-10-11T16:47:04.240Z,2
2022-10-11T16:52:05.936Z,1
2022-10-11T16:57:07.594Z,2
2022-10-11T17:02:09.183Z,1
2022-10-11T17:07:10.803Z,1
2022-10-11T17:12:12.388Z,2
2022-10-11T17:17:13.984Z,2
2022-10-11T17:22:15.620Z,2
2022-10-11T17:27:17.350Z,0
2022-10-11T17:32:18.948Z,1
2022-10-11T17:37:20.579Z,1
2022-10-11T17:42:22.176Z,0
2022-10-11T17:47:23.807Z,1
2022-10-11T17:52:25.412Z,1
2022-10-11T17:57:27.023Z,0
2022-10-11T18:02:28.648Z,0
2022-10-11T18:07:30.257Z,1
2022-10-11T18:12:31.884Z,0
2022-10-11T18:17:33.526Z,0
2022-10-11T18:22:35.117Z,0
2022-10-11T18:27:36.692Z,0
2022-10-11T18:32:38.298Z,0
2022-10-11T18:37:39.939Z,0
2022-10-11T18:42:41.574Z,0
2022-10-11T18:47:43.211Z,0
2022-10-11T18:52:44.824Z,1
2022-10-11T18:57:46.446Z,0
2022-10-11T19:02:48.058Z,0
2022-10-11T19:07:49.675Z,0
2022-10-11T19:12:51.264Z,0
2022-10-11T19:17:52.854Z,0
2022-10-11T19:22:54.451Z,0
2022-10-11T19:27:56.065Z,1
2022-10-11T19:32:57.697Z,0
2022-10-11T19:37:59.279Z,0
2022-10-11T19:43:00.901Z,0
2022-10-11T19:48:02.504Z,0
2022-10-11T19:53:04.187Z,0
2022-10-11T19:58:08.268Z,0
2022-10-11T20:03:10.204Z,0
2022-10-11T20:08:11.806Z,0
2022-10-11T20:13:13.381Z,0
2022-10-11T20:18:15.011Z,0
2022-10-11T20:23:18.268Z,1
2022-10-11T20:28:20.509Z,0
2022-10-11T20:33:22.250Z,0
2022-10-11T20:38:23.834Z,0
2022-10-11T20:43:25.485Z,0
2022-10-11T20:48:27.133Z,0
2022-10-11T20:53:28.699Z,0
2022-10-11T20:58:30.306Z,0
2022-10-11T21:03:32.035Z,0
2022-10-11T21:08:33.624Z,0
2022-10-11T21:13:35.265Z,0
2022-10-11T21:18:36.963Z,0
2022-10-11T21:23:38.564Z,0
2022-10-11T21:28:40.234Z,0
2022-10-11T21:33:41.947Z,0
2022-10-11T21:38:43.549Z,0
2022-10-11T21:43:45.164Z,0
2022-10-11T21:48:46.792Z,0
2022-10-11T21:53:48.402Z,12
2022-10-11T21:58:50.025Z,0
2022-10-11T22:03:51.641Z,0
2022-10-11T22:08:53.259Z,0
2022-10-11T22:13:54.838Z,0
2022-10-11T22:18:56.578Z,0
2022-10-11T22:23:58.161Z,0
2022-10-11T22:28:59.772Z,0
2022-10-11T22:34:01.423Z,0
2022-10-11T22:39:03.224Z,1
2022-10-11T22:44:04.875Z,2
2022-10-11T22:49:06.495Z,9
2022-10-11T22:54:08.061Z,0
2022-10-11T22:59:09.664Z,1
2022-10-11T23:04:11.267Z,0
2022-10-11T23:09:12.826Z,0
2022-10-11T23:14:14.448Z,10
2022-10-11T23:19:16.082Z,1
2022-10-11T23:24:17.670Z,0
2022-10-11T23:29:19.320Z,0
2022-10-11T23:34:20.898Z,0
2022-10-11T23:39:22.463Z,0
2022-10-11T23:44:24.080Z,0
2022-10-11T23:49:25.717Z,0
2022-10-11T23:54:27.316Z,0
2022-10-11T23:59:29.065Z,0
